createdAt,value
2024-02-02T00:00:36.142Z,14.97
2024-02-02T00:03:04.350Z,15.37
2024-02-02T00:05:32.377Z,14.93
2024-02-02T00:08:01.702Z,14.47
2024-02-02T00:10:29.753Z,14.30
2024-02-02T00:12:58.067Z,14.00
2024-02-02T00:15:26.157Z,13.87
2024-02-02T00:17:54.374Z,14.57
2024-02-02T00:20:22.375Z,14.83
2024-02-02T00:22:50.983Z,14.20
2024-02-02T00:25:20.979Z,14.87
2024-02-02T00:27:48.850Z,13.83
2024-02-02T00:30:16.919Z,15.73
2024-02-02T00:32:46.608Z,16.30
2024-02-02T00:35:14.640Z,17.37
2024-02-02T00:37:43.424Z,15.33
2024-02-02T00:40:11.862Z,15.73
2024-02-02T00:42:41.137Z,16.03
2024-02-02T00:45:09.454Z,17.20
2024-02-02T00:47:37.369Z,16.30
2024-02-02T00:50:07.044Z,15.80
2024-02-02T00:52:34.987Z,16.57
2024-02-02T00:55:03.322Z,16.90
2024-02-02T00:57:31.410Z,18.93
2024-02-02T01:00:00.730Z,16.60
2024-02-02T01:02:28.646Z,16.43
2024-02-02T01:04:56.509Z,16.30
2024-02-02T01:07:24.630Z,16.03
2024-02-02T01:09:52.559Z,15.07
2024-02-02T01:12:20.481Z,15.23
2024-02-02T01:14:48.582Z,15.63
2024-02-02T01:17:17.790Z,14.70
2024-02-02T01:19:45.684Z,14.53
2024-02-02T01:22:13.458Z,18.00
2024-02-02T01:24:41.418Z,15.03
2024-02-02T01:27:09.495Z,13.60
2024-02-02T01:29:37.409Z,14.77
2024-02-02T01:32:06.204Z,13.97
2024-02-02T01:34:36.089Z,14.60
2024-02-02T01:37:04.104Z,14.00
2024-02-02T01:39:32.024Z,14.53
2024-02-02T01:42:00.250Z,13.03
2024-02-02T01:44:28.608Z,14.10
2024-02-02T01:46:56.766Z,14.27
2024-02-02T01:49:25.021Z,13.73
2024-02-02T01:51:54.327Z,14.07
2024-02-02T01:54:22.660Z,14.73
2024-02-02T01:56:50.746Z,14.80
2024-02-02T01:59:18.737Z,13.83
2024-02-02T02:01:46.603Z,14.83
2024-02-02T02:04:14.892Z,14.10
2024-02-02T02:06:42.916Z,14.07
2024-02-02T02:09:12.451Z,15.60
2024-02-02T02:11:40.524Z,15.53
2024-02-02T02:14:08.668Z,15.03
2024-02-02T02:16:36.600Z,13.40
2024-02-02T02:19:05.142Z,14.73
2024-02-02T02:21:34.533Z,14.10
2024-02-02T02:24:02.513Z,16.13
2024-02-02T02:26:30.717Z,13.90
2024-02-02T02:28:58.686Z,16.50
2024-02-02T02:31:26.836Z,15.47
2024-02-02T02:33:54.765Z,16.03
2024-02-02T02:36:23.124Z,16.00
2024-02-02T02:38:52.803Z,18.03
2024-02-02T02:41:20.851Z,15.23
2024-02-02T02:43:48.613Z,15.87
2024-02-02T02:46:16.624Z,16.27
2024-02-02T02:48:44.568Z,16.27
2024-02-02T02:51:12.633Z,18.03
2024-02-02T02:53:40.449Z,14.97
2024-02-02T02:56:10.408Z,17.73
2024-02-02T02:58:38.211Z,17.43
2024-02-02T03:01:06.301Z,16.53
2024-02-02T03:03:34.434Z,16.57
2024-02-02T03:06:02.566Z,18.00
2024-02-02T03:08:30.459Z,16.13
2024-02-02T03:10:59.328Z,18.37
2024-02-02T03:13:28.586Z,19.00
2024-02-02T03:15:56.590Z,18.10
2024-02-02T03:18:24.647Z,22.33
2024-02-02T03:20:52.780Z,18.30
2024-02-02T03:23:20.621Z,18.80
2024-02-02T03:25:48.545Z,18.90
2024-02-02T03:28:16.463Z,17.83
2024-02-02T03:30:45.900Z,18.50
2024-02-02T03:33:13.893Z,18.17
2024-02-02T03:35:41.899Z,19.17
2024-02-02T03:38:09.753Z,19.00
2024-02-02T03:40:37.747Z,18.90
2024-02-02T03:43:05.790Z,20.23
2024-02-02T03:45:33.899Z,18.90
2024-02-02T03:48:03.291Z,19.17
2024-02-02T03:50:31.244Z,21.20
2024-02-02T03:53:01.651Z,19.03
2024-02-02T03:55:30.046Z,18.33
2024-02-02T03:57:57.865Z,23.33
2024-02-02T04:00:25.822Z,17.90
2024-02-02T04:02:54.790Z,18.77
2024-02-02T04:05:24.090Z,18.10
2024-02-02T04:07:52.230Z,18.03
2024-02-02T04:10:20.080Z,17.47
2024-02-02T04:12:48.103Z,16.03
2024-02-02T04:15:16.006Z,15.80
2024-02-02T04:17:43.929Z,16.53
2024-02-02T04:20:12.388Z,16.30
2024-02-02T04:22:41.944Z,14.50
2024-02-02T04:25:09.875Z,17.33
2024-02-02T04:27:37.916Z,17.97
2024-02-02T04:30:06.382Z,15.90
2024-02-02T04:32:34.582Z,14.87
2024-02-02T04:35:02.482Z,14.40
2024-02-02T04:37:30.370Z,14.07
2024-02-02T04:39:59.522Z,14.77
2024-02-02T04:42:27.608Z,13.53
2024-02-02T04:44:55.489Z,13.43
2024-02-02T04:47:23.839Z,16.17
2024-02-02T04:49:51.806Z,14.30
2024-02-02T04:52:19.852Z,17.47
2024-02-02T04:54:48.913Z,14.20
2024-02-02T04:57:18.237Z,15.13
2024-02-02T04:59:46.077Z,16.67
2024-02-02T05:02:14.114Z,16.30
2024-02-02T05:04:42.216Z,16.03
2024-02-02T05:07:10.191Z,16.33
2024-02-02T05:09:38.089Z,16.67
2024-02-02T05:12:07.089Z,18.63
2024-02-02T05:14:36.378Z,18.33
2024-02-02T05:17:04.344Z,20.03
2024-02-02T05:19:32.740Z,19.07
2024-02-02T05:22:00.763Z,19.97
2024-02-02T05:24:42.545Z,25.13
2024-02-02T05:27:13.497Z,21.20
2024-02-02T05:29:44.121Z,22.87
2024-02-02T05:32:12.046Z,21.50
2024-02-02T05:34:39.990Z,22.30
2024-02-02T05:37:08.019Z,22.33
2024-02-02T05:39:36.016Z,22.53
2024-02-02T05:42:04.685Z,23.60
2024-02-02T05:44:32.533Z,22.63
2024-02-02T05:47:01.773Z,23.17
2024-02-02T05:49:29.704Z,24.50
2024-02-02T05:52:02.112Z,23.77
2024-02-02T05:54:31.158Z,25.03
2024-02-02T05:56:59.107Z,24.87
2024-02-02T05:59:27.037Z,26.13
2024-02-02T06:01:54.873Z,26.10
2024-02-02T06:04:24.202Z,25.90
2024-02-02T06:06:52.189Z,27.00
2024-02-02T06:09:20.144Z,26.60
2024-02-02T06:11:47.980Z,28.13
2024-02-02T06:14:15.888Z,29.87
2024-02-02T06:16:43.747Z,28.07
2024-02-02T06:19:11.687Z,28.07
2024-02-02T06:21:40.935Z,26.50
2024-02-02T06:24:09.374Z,28.20
2024-02-02T06:26:38.202Z,27.37
2024-02-02T06:29:06.409Z,27.80
2024-02-02T06:31:34.278Z,26.77
2024-02-02T06:34:02.300Z,26.63
2024-02-02T06:36:30.146Z,26.17
2024-02-02T06:38:59.439Z,26.60
2024-02-02T06:41:27.280Z,25.47
2024-02-02T06:43:55.235Z,25.30
2024-02-02T06:46:23.112Z,24.40
2024-02-02T06:48:51.199Z,24.30
2024-02-02T06:51:19.228Z,24.57
2024-02-02T06:53:47.207Z,24.97
2024-02-02T06:56:30.140Z,25.73
2024-02-02T06:58:59.369Z,26.47
2024-02-02T07:01:27.633Z,25.63
2024-02-02T07:03:56.113Z,26.80
2024-02-02T07:06:24.177Z,26.57
2024-02-02T07:08:52.484Z,27.70
2024-02-02T07:11:38.285Z,28.00
2024-02-02T07:14:11.489Z,29.03
2024-02-02T07:16:39.503Z,29.30
2024-02-02T07:19:17.397Z,28.40
2024-02-02T07:21:45.410Z,27.93
2024-02-02T07:24:13.379Z,28.20
2024-02-02T07:26:42.135Z,28.30
2024-02-02T07:29:26.666Z,28.77
2024-02-02T07:31:54.593Z,28.60
2024-02-02T07:34:42.773Z,29.00
2024-02-02T07:37:11.569Z,28.47
2024-02-02T07:39:39.502Z,26.87
2024-02-02T07:42:07.667Z,27.13
2024-02-02T07:44:36.952Z,27.57
2024-02-02T07:47:04.993Z,26.27
2024-02-02T07:49:32.986Z,25.07
2024-02-02T07:52:01.032Z,25.10
2024-02-02T07:54:28.901Z,24.00
2024-02-02T07:56:56.870Z,23.50
2024-02-02T07:59:24.795Z,22.23
2024-02-02T08:01:54.150Z,22.30
2024-02-02T08:04:22.102Z,21.87
2024-02-02T08:06:50.204Z,21.43
2024-02-02T08:09:18.166Z,21.33
2024-02-02T08:11:46.169Z,19.80
2024-02-02T08:14:14.040Z,19.27
2024-02-02T08:16:42.006Z,19.97
2024-02-02T08:19:11.276Z,18.97
2024-02-02T08:21:39.426Z,14.23
2024-02-02T08:24:07.638Z,14.13
2024-02-02T08:26:35.516Z,14.57
2024-02-02T08:29:03.355Z,15.37
2024-02-02T08:31:31.370Z,14.03
2024-02-02T08:33:59.327Z,18.87
2024-02-02T08:36:28.750Z,15.13
2024-02-02T08:38:56.619Z,13.90
2024-02-02T08:41:24.612Z,14.90
2024-02-02T08:43:52.461Z,13.83
2024-02-02T08:46:24.412Z,13.57
2024-02-02T08:48:53.088Z,18.30
2024-02-02T08:51:54.103Z,11.40
2024-02-02T08:54:36.705Z,12.23
2024-02-02T08:57:23.591Z,11.63
2024-02-02T08:59:54.124Z,15.37
2024-02-02T09:02:35.530Z,16.57
2024-02-02T09:05:08.800Z,17.80
2024-02-02T09:07:36.736Z,15.73
2024-02-02T09:10:21.791Z,15.10
2024-02-02T09:12:51.889Z,12.70
2024-02-02T09:15:20.373Z,15.73
2024-02-02T09:17:49.150Z,18.57
2024-02-02T09:20:27.274Z,19.67
2024-02-02T09:22:55.290Z,22.50
2024-02-02T09:25:26.244Z,18.33
2024-02-02T09:27:57.624Z,18.47
2024-02-02T09:30:26.012Z,17.97
2024-02-02T09:32:53.998Z,18.33
2024-02-02T09:35:39.920Z,23.50
2024-02-02T09:38:08.589Z,16.40
2024-02-02T09:40:57.879Z,17.57
2024-02-02T09:43:29.035Z,17.53
2024-02-02T09:46:02.360Z,12.97
2024-02-02T09:48:43.756Z,18.63
2024-02-02T09:51:13.704Z,15.30
2024-02-02T09:54:06.207Z,19.23
2024-02-02T09:56:42.638Z,16.23
2024-02-02T09:59:14.037Z,19.03
2024-02-02T10:01:50.616Z,19.60
2024-02-02T10:04:25.160Z,16.37
2024-02-02T10:07:01.032Z,20.90
2024-02-02T10:09:46.671Z,16.47
2024-02-02T10:12:19.452Z,17.17
2024-02-02T10:15:04.381Z,21.47
2024-02-02T10:17:38.642Z,15.53
2024-02-02T10:20:17.057Z,21.20
2024-02-02T10:22:57.158Z,17.00
2024-02-02T10:25:32.337Z,22.23
2024-02-02T10:28:09.203Z,19.50
2024-02-02T10:30:42.590Z,20.90
2024-02-02T10:33:27.209Z,18.97
2024-02-02T10:36:00.361Z,13.23
2024-02-02T10:38:32.656Z,14.27
2024-02-02T10:41:06.513Z,17.77
2024-02-02T10:43:43.317Z,17.93
2024-02-02T10:46:19.788Z,17.77
2024-02-02T10:48:58.788Z,17.27
2024-02-02T10:51:33.046Z,19.00
2024-02-02T10:54:04.560Z,22.60
2024-02-02T10:56:39.554Z,16.77
2024-02-02T10:59:15.642Z,16.63
2024-02-02T11:01:46.932Z,17.50
2024-02-02T11:04:21.548Z,19.47
2024-02-02T11:06:54.099Z,16.57
2024-02-02T11:09:27.810Z,14.03
2024-02-02T11:11:59.645Z,13.97
2024-02-02T11:14:33.821Z,16.40
2024-02-02T11:17:02.878Z,15.80
2024-02-02T11:19:37.613Z,13.43
2024-02-02T11:22:23.744Z,15.43
2024-02-02T11:24:58.656Z,18.37
2024-02-02T11:27:33.761Z,17.57
2024-02-02T11:30:07.053Z,16.40
2024-02-02T11:32:41.823Z,12.10
2024-02-02T11:35:12.630Z,14.30
2024-02-02T11:37:47.669Z,13.77
2024-02-02T11:40:16.044Z,15.50
2024-02-02T11:42:45.724Z,11.23
2024-02-02T11:45:19.143Z,14.57
2024-02-02T11:47:49.702Z,12.23
2024-02-02T11:50:19.245Z,14.30
2024-02-02T11:52:49.850Z,13.67
2024-02-02T11:55:21.503Z,12.63
2024-02-02T11:57:54.566Z,16.07
2024-02-02T12:00:29.237Z,13.03
2024-02-02T12:03:05.833Z,12.07
2024-02-02T12:05:39.864Z,13.27
2024-02-02T12:08:14.515Z,13.70
2024-02-02T12:10:44.006Z,15.80
2024-02-02T12:13:14.539Z,12.63
2024-02-02T12:15:43.965Z,15.50
2024-02-02T12:18:12.017Z,15.47
2024-02-02T12:20:40.963Z,13.17
2024-02-02T12:23:09.635Z,11.03
2024-02-02T12:25:38.125Z,12.90
2024-02-02T12:28:06.449Z,12.43
2024-02-02T12:30:34.393Z,9.67
2024-02-02T12:35:33.600Z,10.83
2024-02-02T12:38:01.828Z,10.63
2024-02-02T12:40:29.704Z,12.10
2024-02-02T12:42:58.104Z,13.47
2024-02-02T12:45:26.352Z,9.43
2024-02-02T12:47:54.805Z,10.77
2024-02-02T12:50:25.483Z,14.30
2024-02-02T12:52:55.367Z,12.80
2024-02-02T12:55:23.977Z,10.67
2024-02-02T12:57:52.242Z,10.90
2024-02-02T13:00:22.861Z,13.70
2024-02-02T13:02:55.469Z,12.63
2024-02-02T13:05:27.758Z,13.90
2024-02-02T13:07:57.169Z,14.30
2024-02-02T13:10:38.204Z,11.00
2024-02-02T13:13:12.988Z,11.77
2024-02-02T13:15:42.068Z,9.13
2024-02-02T13:18:18.256Z,10.53
2024-02-02T13:20:48.194Z,11.13
2024-02-02T13:23:25.361Z,12.10
2024-02-02T13:25:53.909Z,13.40
2024-02-02T13:28:21.969Z,11.30
2024-02-02T13:30:58.694Z,10.00
2024-02-02T13:33:31.237Z,11.93
2024-02-02T13:36:02.787Z,10.57
2024-02-02T13:38:34.676Z,13.33
2024-02-02T13:41:02.904Z,11.17
2024-02-02T13:43:30.895Z,10.00
2024-02-02T13:46:06.460Z,13.83
2024-02-02T13:48:38.519Z,11.80
2024-02-02T13:51:11.060Z,11.20
2024-02-02T13:53:39.332Z,11.03
2024-02-02T13:56:08.023Z,11.97
2024-02-02T13:58:39.596Z,12.53
2024-02-02T14:01:14.792Z,14.77
2024-02-02T14:03:43.234Z,14.73
2024-02-02T14:06:13.383Z,11.37
2024-02-02T14:08:41.797Z,12.37
2024-02-02T14:11:10.000Z,14.10
2024-02-02T14:13:38.267Z,14.03
2024-02-02T14:16:06.730Z,14.60
2024-02-02T14:18:34.969Z,11.97
2024-02-02T14:21:12.650Z,12.70
2024-02-02T14:23:40.750Z,12.70
2024-02-02T14:26:10.297Z,10.67
2024-02-02T14:28:38.656Z,12.23
2024-02-02T14:31:07.042Z,9.60
2024-02-02T14:33:35.588Z,11.30
2024-02-02T14:36:04.841Z,12.93
2024-02-02T14:38:34.143Z,13.03
2024-02-02T14:41:02.008Z,11.67
2024-02-02T14:43:30.109Z,15.80
2024-02-02T14:45:59.629Z,12.23
2024-02-02T14:48:27.689Z,17.10
2024-02-02T14:50:55.570Z,11.90
2024-02-02T14:53:23.780Z,15.93
2024-02-02T14:55:53.249Z,13.93
2024-02-02T14:58:21.207Z,12.47
2024-02-02T15:00:49.342Z,11.60
2024-02-02T15:03:17.671Z,15.83
2024-02-02T15:05:45.781Z,17.80
2024-02-02T15:08:13.901Z,14.50
2024-02-02T15:10:42.399Z,17.03
2024-02-02T15:13:11.971Z,14.00
2024-02-02T15:15:39.962Z,14.83
2024-02-02T15:18:08.249Z,13.33
2024-02-02T15:20:36.195Z,15.40
2024-02-02T15:23:04.061Z,11.77
2024-02-02T15:25:32.102Z,11.77
2024-02-02T15:28:00.025Z,11.97
2024-02-02T15:30:29.473Z,11.87
2024-02-02T15:32:57.378Z,12.30
2024-02-02T15:35:25.316Z,14.27
2024-02-02T15:37:53.242Z,12.70
2024-02-02T15:40:21.285Z,16.37
2024-02-02T15:42:51.335Z,15.80
2024-02-02T15:45:19.682Z,14.00
2024-02-02T15:47:51.866Z,12.40
2024-02-02T15:50:20.447Z,15.93
2024-02-02T15:52:48.908Z,12.50
2024-02-02T15:55:16.945Z,10.80
2024-02-02T15:57:50.335Z,11.03
2024-02-02T16:00:19.332Z,12.13
2024-02-02T16:02:48.597Z,14.00
2024-02-02T16:05:16.944Z,13.40
2024-02-02T16:07:44.813Z,13.77
2024-02-02T16:10:14.006Z,12.77
2024-02-02T16:12:42.034Z,11.87
2024-02-02T16:15:10.707Z,14.50
2024-02-02T16:17:39.114Z,14.80
2024-02-02T16:20:10.682Z,13.37
2024-02-02T16:22:38.680Z,13.23
2024-02-02T16:25:08.829Z,17.93
2024-02-02T16:27:36.925Z,15.27
2024-02-02T16:30:04.885Z,12.07
2024-02-02T16:32:32.980Z,16.50
2024-02-02T16:35:04.207Z,14.40
2024-02-02T16:37:33.564Z,13.13
2024-02-02T16:40:01.639Z,14.13
2024-02-02T16:42:29.634Z,15.87
2024-02-02T16:44:57.489Z,14.50
2024-02-02T16:47:25.297Z,12.30
2024-02-02T16:49:53.169Z,14.03
2024-02-02T16:52:21.174Z,14.30
2024-02-02T16:54:50.399Z,17.63
2024-02-02T16:57:18.412Z,13.50
2024-02-02T16:59:46.266Z,15.27
2024-02-02T17:02:14.221Z,12.90
2024-02-02T17:04:44.024Z,13.23
2024-02-02T17:07:12.234Z,13.47
2024-02-02T17:09:40.527Z,13.90
2024-02-02T17:12:10.379Z,12.30
2024-02-02T17:14:40.113Z,11.93
2024-02-02T17:17:08.138Z,11.63
2024-02-02T17:19:36.074Z,11.63
2024-02-02T17:22:04.165Z,12.77
2024-02-02T17:24:32.174Z,13.03
2024-02-02T17:27:00.155Z,12.23
2024-02-02T17:29:31.044Z,12.97
2024-02-02T17:31:59.021Z,15.00
2024-02-02T17:34:27.085Z,12.37
2024-02-02T17:36:55.111Z,13.23
2024-02-02T17:39:23.059Z,12.73
2024-02-02T17:41:50.982Z,12.10
2024-02-02T17:44:22.867Z,12.07
2024-02-02T17:46:54.079Z,13.27
2024-02-02T17:49:22.039Z,10.73
2024-02-02T17:51:50.098Z,11.13
2024-02-02T17:54:18.112Z,17.27
2024-02-02T17:56:45.981Z,14.03
2024-02-02T17:59:13.887Z,14.37
2024-02-02T18:01:41.873Z,11.97
2024-02-02T18:04:11.259Z,13.73
2024-02-02T18:06:39.146Z,14.07
2024-02-02T18:09:07.672Z,12.13
2024-02-02T18:11:36.504Z,12.17
2024-02-02T18:14:04.354Z,15.10
2024-02-02T18:16:33.159Z,13.93
2024-02-02T18:19:01.603Z,13.70
2024-02-02T18:21:32.553Z,12.07
2024-02-02T18:24:00.643Z,11.40
2024-02-02T18:26:28.554Z,14.70
2024-02-02T18:28:56.393Z,14.60
2024-02-02T18:31:24.332Z,15.23
2024-02-02T18:33:52.442Z,18.83
2024-02-02T18:36:20.569Z,17.00
2024-02-02T18:38:49.922Z,13.67
2024-02-02T18:41:17.771Z,15.50
2024-02-02T18:43:45.659Z,14.80
2024-02-02T18:46:13.601Z,15.83
2024-02-02T18:48:41.903Z,16.83
2024-02-02T18:51:16.180Z,16.53
2024-02-02T18:53:44.123Z,16.60
2024-02-02T18:56:13.948Z,22.17
2024-02-02T18:58:46.342Z,19.13
2024-02-02T19:01:23.241Z,21.60
2024-02-02T19:03:51.253Z,28.07
2024-02-02T19:06:19.429Z,21.60
2024-02-02T19:08:47.394Z,20.23
2024-02-02T19:11:16.814Z,20.23
2024-02-02T19:13:44.962Z,20.10
2024-02-02T19:16:19.843Z,22.03
2024-02-02T19:18:48.058Z,20.57
2024-02-02T19:21:19.350Z,22.70
2024-02-02T19:23:47.397Z,21.30
2024-02-02T19:26:16.883Z,19.07
2024-02-02T19:28:45.469Z,21.13
2024-02-02T19:31:19.422Z,19.83
2024-02-02T19:33:47.597Z,20.30
2024-02-02T19:36:22.463Z,22.17
2024-02-02T19:38:50.660Z,19.37
2024-02-02T19:41:23.175Z,20.43
2024-02-02T19:43:51.597Z,17.47
2024-02-02T19:46:25.796Z,19.83
2024-02-02T19:48:54.606Z,19.73
2024-02-02T19:51:23.982Z,20.60
2024-02-02T19:53:52.128Z,18.63
2024-02-02T19:56:20.572Z,17.47
2024-02-02T19:58:50.270Z,17.47
2024-02-02T20:01:19.203Z,16.70
2024-02-02T20:03:47.925Z,18.67
2024-02-02T20:06:17.568Z,18.93
2024-02-02T20:08:46.732Z,16.30
2024-02-02T20:11:14.957Z,15.67
2024-02-02T20:13:43.254Z,16.73
2024-02-02T20:16:15.166Z,16.17
2024-02-02T20:18:43.298Z,16.97
2024-02-02T20:21:13.526Z,16.47
2024-02-02T20:23:41.544Z,16.43
2024-02-02T20:26:09.579Z,16.37
2024-02-02T20:28:37.639Z,17.40
2024-02-02T20:31:06.780Z,20.40
2024-02-02T20:33:36.270Z,16.13
2024-02-02T20:36:04.203Z,16.03
2024-02-02T20:38:32.027Z,17.53
2024-02-02T20:40:59.909Z,16.67
2024-02-02T20:43:27.848Z,16.97
2024-02-02T20:45:55.731Z,18.87
2024-02-02T20:48:24.946Z,16.17
2024-02-02T20:50:54.571Z,16.97
2024-02-02T20:53:22.411Z,16.30
2024-02-02T20:55:50.545Z,16.30
2024-02-02T20:58:18.416Z,18.27
2024-02-02T21:00:46.543Z,16.83
2024-02-02T21:03:14.776Z,16.60
2024-02-02T21:05:42.857Z,15.30
2024-02-02T21:08:12.095Z,16.17
2024-02-02T21:10:40.717Z,15.57
2024-02-02T21:13:08.562Z,16.07
2024-02-02T21:15:37.726Z,14.70
2024-02-02T21:18:09.483Z,15.93
2024-02-02T21:20:44.565Z,15.60
2024-02-02T21:23:14.197Z,15.03
2024-02-02T21:25:43.905Z,14.70
2024-02-02T21:28:11.925Z,15.37
2024-02-02T21:30:39.886Z,14.53
2024-02-02T21:33:07.759Z,15.87
2024-02-02T21:35:35.793Z,14.57
2024-02-02T21:38:03.732Z,14.47
2024-02-02T21:40:34.300Z,14.87
2024-02-02T21:43:02.486Z,17.30
2024-02-02T21:45:33.145Z,15.60
2024-02-02T21:48:01.206Z,14.30
2024-02-02T21:50:29.122Z,14.83
2024-02-02T21:52:57.112Z,15.53
2024-02-02T21:55:25.084Z,16.40
2024-02-02T21:57:54.385Z,17.37
2024-02-02T22:00:22.823Z,17.07
2024-02-02T22:02:50.873Z,16.43
2024-02-02T22:05:18.689Z,17.33
2024-02-02T22:07:46.668Z,17.50
2024-02-02T22:10:14.578Z,18.20
2024-02-02T22:12:42.515Z,19.03
2024-02-02T22:15:12.226Z,19.40
2024-02-02T22:17:40.297Z,19.70
2024-02-02T22:20:09.355Z,20.77
2024-02-02T22:22:37.282Z,20.27
2024-02-02T22:25:05.333Z,20.60
2024-02-02T22:27:35.267Z,20.90
2024-02-02T22:30:07.376Z,21.63
2024-02-02T22:32:37.555Z,21.97
2024-02-02T22:35:05.908Z,21.47
2024-02-02T22:37:33.716Z,20.73
2024-02-02T22:40:01.514Z,22.03
2024-02-02T22:42:29.573Z,23.07
2024-02-02T22:44:57.961Z,21.97
2024-02-02T22:47:25.953Z,22.80
2024-02-02T22:49:55.100Z,23.90
2024-02-02T22:52:23.038Z,23.90
2024-02-02T22:54:51.048Z,24.30
2024-02-02T22:57:19.149Z,24.73
2024-02-02T22:59:53.476Z,26.63
2024-02-02T23:02:27.486Z,27.10
2024-02-02T23:04:56.653Z,26.93
2024-02-02T23:07:24.706Z,27.60
2024-02-02T23:09:52.652Z,28.57
2024-02-02T23:12:21.031Z,28.50
2024-02-02T23:14:48.810Z,29.33
2024-02-02T23:17:16.830Z,28.77
2024-02-02T23:19:45.391Z,28.37
2024-02-02T23:22:14.864Z,28.70
2024-02-02T23:24:42.678Z,26.40
2024-02-02T23:27:10.484Z,25.53
2024-02-02T23:29:38.327Z,25.40
2024-02-02T23:32:06.693Z,24.57
2024-02-02T23:34:34.649Z,24.40
2024-02-02T23:37:03.160Z,22.30
2024-02-02T23:39:33.055Z,21.83
2024-02-02T23:42:01.037Z,20.73
2024-02-02T23:44:28.846Z,20.37
2024-02-02T23:46:56.842Z,19.67
2024-02-02T23:49:24.710Z,19.20
2024-02-02T23:51:52.663Z,17.70
2024-02-02T23:54:20.476Z,17.80
2024-02-02T23:56:49.796Z,18.10
2024-02-02T23:59:17.810Z,16.17
